createdAt,value
2024-01-25T00:00:49.229Z,95745.00
2024-01-25T00:01:49.289Z,95748.00
2024-01-25T00:02:49.278Z,95748.00
2024-01-25T00:03:49.406Z,95752.00
2024-01-25T00:04:49.547Z,95750.00
2024-01-25T00:05:49.549Z,95748.00
2024-01-25T00:06:49.518Z,95751.00
2024-01-25T00:07:49.691Z,95751.00
2024-01-25T00:08:49.579Z,95748.00
2024-01-25T00:09:49.791Z,95750.00
2024-01-25T00:10:49.686Z,95755.00
2024-01-25T00:11:49.694Z,95760.00
2024-01-25T00:12:49.745Z,95752.00
2024-01-25T00:13:49.746Z,95743.00
2024-01-25T00:14:49.815Z,95747.00
2024-01-25T00:15:49.851Z,95745.00
2024-01-25T00:16:49.884Z,95739.00
2024-01-25T00:17:49.917Z,95739.00
2024-01-25T00:18:50.046Z,95739.00
2024-01-25T00:19:50.036Z,95744.00
2024-01-25T00:20:49.988Z,95751.00
2024-01-25T00:21:50.046Z,95752.00
2024-01-25T00:22:50.051Z,95752.00
2024-01-25T00:23:50.075Z,95751.00
2024-01-25T00:24:50.184Z,95752.00
2024-01-25T00:25:50.125Z,95756.00
2024-01-25T00:26:50.140Z,95755.00
2024-01-25T00:27:50.269Z,95759.00
2024-01-25T00:28:50.275Z,95756.00
2024-01-25T00:29:50.326Z,95756.00
2024-01-25T00:30:50.402Z,95761.00
2024-01-25T00:31:50.433Z,95761.00
2024-01-25T00:32:50.598Z,95759.00
2024-01-25T00:33:50.665Z,95755.00
2024-01-25T00:34:50.627Z,95757.00
2024-01-25T00:35:50.573Z,95761.00
2024-01-25T00:36:50.653Z,95765.00
2024-01-25T00:37:50.684Z,95762.00
2024-01-25T00:38:50.718Z,95763.00
2024-01-25T00:39:50.929Z,95763.00
2024-01-25T00:40:51.743Z,95761.00
2024-01-25T00:41:50.925Z,95759.00
2024-01-25T00:42:50.989Z,95757.00
2024-01-25T00:43:50.976Z,95755.00
2024-01-25T00:44:51.046Z,95753.00
2024-01-25T00:45:51.177Z,95754.00
2024-01-25T00:46:51.107Z,95755.00
2024-01-25T00:47:51.208Z,95755.00
2024-01-25T00:48:51.576Z,95755.00
2024-01-25T00:49:51.326Z,95758.00
2024-01-25T00:50:51.299Z,95761.00
2024-01-25T00:51:51.379Z,95756.00
2024-01-25T00:52:51.343Z,95755.00
2024-01-25T00:53:51.358Z,95755.00
2024-01-25T00:54:51.370Z,95756.00
2024-01-25T00:55:51.353Z,95757.00
2024-01-25T00:56:51.419Z,95760.00
2024-01-25T00:57:51.473Z,95763.00
2024-01-25T00:58:51.490Z,95763.00
2024-01-25T00:59:51.571Z,95763.00
2024-01-25T01:00:51.702Z,95763.00
2024-01-25T01:01:51.762Z,95765.00
2024-01-25T01:02:51.594Z,95769.00
2024-01-25T01:03:51.700Z,95770.00
2024-01-25T01:04:51.871Z,95770.00
2024-01-25T01:05:51.803Z,95767.00
2024-01-25T01:06:51.881Z,95766.00
2024-01-25T01:07:52.038Z,95766.00
2024-01-25T01:08:51.930Z,95770.00
2024-01-25T01:09:52.034Z,95775.00
2024-01-25T01:10:51.967Z,95774.00
2024-01-25T01:11:51.984Z,95765.00
2024-01-25T01:12:52.017Z,95763.00
2024-01-25T01:13:52.005Z,95767.00
2024-01-25T01:14:52.023Z,95766.00
2024-01-25T01:15:52.174Z,95764.00
2024-01-25T01:16:52.125Z,95764.00
2024-01-25T01:17:52.152Z,95763.00
2024-01-25T01:18:52.317Z,95761.00
2024-01-25T01:19:52.421Z,95762.00
2024-01-25T01:20:52.328Z,95754.00
2024-01-25T01:21:52.264Z,95747.00
2024-01-25T01:22:52.325Z,95747.00
2024-01-25T01:23:52.482Z,95750.00
2024-01-25T01:24:52.526Z,95752.00
2024-01-25T01:25:52.570Z,95756.00
2024-01-25T01:26:52.561Z,95760.00
2024-01-25T01:27:52.688Z,95764.00
2024-01-25T01:28:52.586Z,95764.00
2024-01-25T01:29:52.614Z,95765.00
2024-01-25T01:30:52.684Z,95766.00
2024-01-25T01:31:52.637Z,95770.00
2024-01-25T01:32:52.785Z,95775.00
2024-01-25T01:33:52.884Z,95775.00
2024-01-25T01:34:53.036Z,95773.00
2024-01-25T01:35:52.769Z,95773.00
2024-01-25T01:36:53.311Z,95771.00
2024-01-25T01:37:52.844Z,95768.00
2024-01-25T01:38:52.850Z,95768.00
2024-01-25T01:39:52.911Z,95767.00
2024-01-25T01:40:52.913Z,95764.00
2024-01-25T01:41:52.986Z,95764.00
2024-01-25T01:42:53.028Z,95767.00
2024-01-25T01:43:53.064Z,95774.00
2024-01-25T01:44:53.126Z,95776.00
2024-01-25T01:45:53.183Z,95773.00
2024-01-25T01:46:53.198Z,95770.00
2024-01-25T01:47:53.348Z,95768.00
2024-01-25T01:48:53.417Z,95765.00
2024-01-25T01:49:53.368Z,95766.00
2024-01-25T01:50:53.491Z,95768.00
2024-01-25T01:51:53.425Z,95767.00
2024-01-25T01:52:53.397Z,95769.00
2024-01-25T01:53:53.413Z,95764.00
2024-01-25T01:54:53.446Z,95763.00
2024-01-25T01:55:53.474Z,95765.00
2024-01-25T01:56:53.579Z,95765.00
2024-01-25T01:57:53.508Z,95771.00
2024-01-25T01:58:53.526Z,95771.00
2024-01-25T01:59:53.530Z,95775.00
2024-01-25T02:00:53.669Z,95775.00
2024-01-25T02:01:53.966Z,95776.00
2024-01-25T02:02:53.651Z,95780.00
2024-01-25T02:03:53.758Z,95787.00
2024-01-25T02:04:53.755Z,95788.00
2024-01-25T02:05:53.718Z,95785.00
2024-01-25T02:06:53.758Z,95777.00
2024-01-25T02:07:53.761Z,95774.00
2024-01-25T02:08:53.773Z,95771.00
2024-01-25T02:09:53.800Z,95766.00
2024-01-25T02:10:53.789Z,95768.00
2024-01-25T02:11:53.803Z,95770.00
2024-01-25T02:12:53.800Z,95775.00
2024-01-25T02:13:53.803Z,95776.00
2024-01-25T02:14:53.814Z,95771.00
2024-01-25T02:15:53.817Z,95772.00
2024-01-25T02:16:53.802Z,95770.00
2024-01-25T02:17:53.878Z,95770.00
2024-01-25T02:18:53.928Z,95767.00
2024-01-25T02:19:53.942Z,95769.00
2024-01-25T02:20:53.845Z,95771.00
2024-01-25T02:21:53.907Z,95778.00
2024-01-25T02:22:53.906Z,95785.00
2024-01-25T02:23:53.931Z,95792.00
2024-01-25T02:24:53.977Z,95799.00
2024-01-25T02:25:53.915Z,95800.00
2024-01-25T02:26:53.943Z,95798.00
2024-01-25T02:27:53.942Z,95797.00
2024-01-25T02:28:55.553Z,95791.00
2024-01-25T02:29:54.003Z,95789.00
2024-01-25T02:30:54.085Z,95788.00
2024-01-25T02:31:54.018Z,95785.00
2024-01-25T02:32:54.195Z,95777.00
2024-01-25T02:33:54.190Z,95773.00
2024-01-25T02:34:54.210Z,95775.00
2024-01-25T02:35:54.071Z,95777.00
2024-01-25T02:36:54.144Z,95775.00
2024-01-25T02:37:54.162Z,95771.00
2024-01-25T02:38:54.114Z,95772.00
2024-01-25T02:39:54.161Z,95777.00
2024-01-25T02:40:54.129Z,95779.00
2024-01-25T02:41:54.194Z,95781.00
2024-01-25T02:42:54.191Z,95785.00
2024-01-25T02:43:54.142Z,95787.00
2024-01-25T02:44:54.307Z,95784.00
2024-01-25T02:45:54.196Z,95784.00
2024-01-25T02:46:54.180Z,95783.00
2024-01-25T02:47:54.278Z,95779.00
2024-01-25T02:48:54.248Z,95779.00
2024-01-25T02:49:54.325Z,95783.00
2024-01-25T02:50:54.180Z,95782.00
2024-01-25T02:51:54.263Z,95782.00
2024-01-25T02:52:54.212Z,95779.00
2024-01-25T02:53:54.281Z,95782.00
2024-01-25T02:54:54.199Z,95786.00
2024-01-25T02:55:54.218Z,95787.00
2024-01-25T02:56:54.200Z,95786.00
2024-01-25T02:57:54.289Z,95783.00
2024-01-25T02:58:54.254Z,95783.00
2024-01-25T02:59:54.244Z,95782.00
2024-01-25T03:00:54.336Z,95779.00
2024-01-25T03:01:54.326Z,95779.00
2024-01-25T03:02:54.296Z,95779.00
2024-01-25T03:03:54.382Z,95780.00
2024-01-25T03:04:54.517Z,95780.00
2024-01-25T03:05:54.468Z,95780.00
2024-01-25T03:06:54.390Z,95777.00
2024-01-25T03:07:54.352Z,95775.00
2024-01-25T03:08:54.299Z,95772.00
2024-01-25T03:09:54.358Z,95775.00
2024-01-25T03:10:54.330Z,95779.00
2024-01-25T03:11:54.374Z,95783.00
2024-01-25T03:12:54.361Z,95784.00
2024-01-25T03:13:54.311Z,95787.00
2024-01-25T03:14:54.356Z,95789.00
2024-01-25T03:15:54.396Z,95790.00
2024-01-25T03:16:54.443Z,95792.00
2024-01-25T03:17:54.460Z,95793.00
2024-01-25T03:18:54.451Z,95789.00
2024-01-25T03:19:54.542Z,95785.00
2024-01-25T03:20:54.393Z,95781.00
2024-01-25T03:21:54.497Z,95779.00
2024-01-25T03:22:54.386Z,95781.00
2024-01-25T03:23:54.478Z,95785.00
2024-01-25T03:24:54.495Z,95789.00
2024-01-25T03:25:54.393Z,95792.00
2024-01-25T03:26:54.421Z,95792.00
2024-01-25T03:27:54.408Z,95796.00
2024-01-25T03:28:54.422Z,95795.00
2024-01-25T03:29:54.441Z,95794.00
2024-01-25T03:30:54.486Z,95796.00
2024-01-25T03:31:54.471Z,95794.00
2024-01-25T03:32:54.501Z,95798.00
2024-01-25T03:33:54.572Z,95798.00
2024-01-25T03:34:54.541Z,95799.00
2024-01-25T03:35:54.488Z,95803.00
2024-01-25T03:36:54.540Z,95802.00
2024-01-25T03:37:54.495Z,95801.00
2024-01-25T03:38:54.525Z,95798.00
2024-01-25T03:39:54.622Z,95798.00
2024-01-25T03:40:54.639Z,95802.00
2024-01-25T03:41:54.601Z,95805.00
2024-01-25T03:43:08.470Z,95805.00
2024-01-25T03:43:55.606Z,95805.00
2024-01-25T03:44:54.539Z,95812.00
2024-01-25T03:45:54.580Z,95815.00
2024-01-25T03:46:54.547Z,95813.00
2024-01-25T03:47:54.594Z,95811.00
2024-01-25T03:48:54.637Z,95814.00
2024-01-25T03:49:54.659Z,95818.00
2024-01-25T03:50:54.572Z,95817.00
2024-01-25T03:51:54.647Z,95811.00
2024-01-25T03:52:54.608Z,95809.00
2024-01-25T03:53:54.558Z,95814.00
2024-01-25T03:54:54.595Z,95807.00
2024-01-25T03:55:54.578Z,95806.00
2024-01-25T03:56:54.748Z,95805.00
2024-01-25T03:57:54.625Z,95807.00
2024-01-25T03:58:54.587Z,95805.00
2024-01-25T03:59:54.605Z,95808.00
2024-01-25T04:00:54.765Z,95812.00
2024-01-25T04:01:54.702Z,95814.00
2024-01-25T04:02:54.624Z,95813.00
2024-01-25T04:03:54.701Z,95817.00
2024-01-25T04:04:54.648Z,95821.00
2024-01-25T04:05:54.692Z,95824.00
2024-01-25T04:06:54.621Z,95825.00
2024-01-25T04:07:54.625Z,95825.00
2024-01-25T04:08:54.572Z,95827.00
2024-01-25T04:09:54.620Z,95824.00
2024-01-25T04:10:54.626Z,95821.00
2024-01-25T04:11:54.655Z,95820.00
2024-01-25T04:12:56.324Z,95822.00
2024-01-25T04:13:54.596Z,95818.00
2024-01-25T04:14:54.597Z,95814.00
2024-01-25T04:15:54.655Z,95816.00
2024-01-25T04:16:54.674Z,95816.00
2024-01-25T04:17:54.665Z,95818.00
2024-01-25T04:18:54.727Z,95820.00
2024-01-25T04:19:54.711Z,95814.00
2024-01-25T04:20:54.644Z,95805.00
2024-01-25T04:21:54.639Z,95805.00
2024-01-25T04:22:54.613Z,95808.00
2024-01-25T04:23:54.596Z,95811.00
2024-01-25T04:24:54.657Z,95812.00
2024-01-25T04:25:54.631Z,95814.00
2024-01-25T04:26:54.625Z,95813.00
2024-01-25T04:27:54.665Z,95811.00
2024-01-25T04:28:54.643Z,95812.00
2024-01-25T04:29:54.637Z,95809.00
2024-01-25T04:30:54.609Z,95813.00
2024-01-25T04:31:54.614Z,95811.00
2024-01-25T04:32:54.726Z,95808.00
2024-01-25T04:33:54.759Z,95806.00
2024-01-25T04:34:54.725Z,95807.00
2024-01-25T04:35:54.665Z,95820.00
2024-01-25T04:36:54.662Z,95825.00
2024-01-25T04:37:54.612Z,95828.00
2024-01-25T04:38:54.613Z,95831.00
2024-01-25T04:39:54.690Z,95831.00
2024-01-25T04:40:54.687Z,95833.00
2024-01-25T04:41:54.689Z,95836.00
2024-01-25T04:43:02.070Z,95839.00
2024-01-25T04:44:02.011Z,95843.00
2024-01-25T04:45:01.956Z,95843.00
2024-01-25T04:46:02.047Z,95841.00
2024-01-25T04:47:01.991Z,95840.00
2024-01-25T04:48:02.281Z,95845.00
2024-01-25T04:49:02.179Z,95851.00
2024-01-25T04:50:02.108Z,95853.00
2024-01-25T04:51:01.969Z,95855.00
2024-01-25T04:52:02.038Z,95863.00
2024-01-25T04:53:03.272Z,95866.00
2024-01-25T04:54:02.026Z,95871.00
2024-01-25T04:55:02.108Z,95868.00
2024-01-25T04:56:02.042Z,95870.00
2024-01-25T04:57:02.014Z,95870.00
2024-01-25T04:58:02.027Z,95871.00
2024-01-25T04:59:02.039Z,95876.00
2024-01-25T05:00:02.033Z,95881.00
2024-01-25T05:01:02.160Z,95882.00
2024-01-25T05:02:02.106Z,95875.00
2024-01-25T05:03:02.055Z,95872.00
2024-01-25T05:04:02.060Z,95871.00
2024-01-25T05:05:02.118Z,95873.00
2024-01-25T05:06:02.065Z,95877.00
2024-01-25T05:07:02.107Z,95879.00
2024-01-25T05:08:02.109Z,95877.00
2024-01-25T05:09:02.037Z,95876.00
2024-01-25T05:10:02.098Z,95878.00
2024-01-25T05:11:02.104Z,95877.00
2024-01-25T05:12:02.083Z,95873.00
2024-01-25T05:13:02.074Z,95878.00
2024-01-25T05:14:02.022Z,95881.00
2024-01-25T05:15:02.095Z,95882.00
2024-01-25T05:16:02.050Z,95881.00
2024-01-25T05:17:02.041Z,95880.00
2024-01-25T05:18:02.112Z,95884.00
2024-01-25T05:19:02.262Z,95879.00
2024-01-25T05:20:02.234Z,95884.00
2024-01-25T05:21:02.038Z,95886.00
2024-01-25T05:22:02.044Z,95892.00
2024-01-25T05:23:02.029Z,95892.00
2024-01-25T05:24:02.095Z,95900.00
2024-01-25T05:25:02.170Z,95903.00
2024-01-25T05:26:02.003Z,95910.00
2024-01-25T05:27:02.064Z,95908.00
2024-01-25T05:28:02.150Z,95907.00
2024-01-25T05:29:02.072Z,95908.00
2024-01-25T05:30:02.074Z,95907.00
2024-01-25T05:31:04.323Z,95910.00
2024-01-25T05:32:02.119Z,95915.00
2024-01-25T05:33:02.270Z,95916.00
2024-01-25T05:34:02.270Z,95914.00
2024-01-25T05:35:02.341Z,95922.00
2024-01-25T05:36:02.100Z,95928.00
2024-01-25T05:37:02.110Z,95929.00
2024-01-25T05:38:02.083Z,95931.00
2024-01-25T05:39:02.072Z,95934.00
2024-01-25T05:40:02.202Z,95931.00
2024-01-25T05:41:02.044Z,95936.00
2024-01-25T05:42:02.059Z,95938.00
2024-01-25T05:43:02.093Z,95943.00
2024-01-25T05:44:02.018Z,95941.00
2024-01-25T05:45:02.112Z,95946.00
2024-01-25T05:46:04.559Z,95949.00
2024-01-25T05:47:02.087Z,95951.00
2024-01-25T05:48:02.086Z,95957.00
2024-01-25T05:49:02.138Z,95955.00
2024-01-25T05:50:02.346Z,95952.00
2024-01-25T05:51:02.044Z,95952.00
2024-01-25T05:52:02.131Z,95953.00
2024-01-25T05:53:02.147Z,95956.00
2024-01-25T05:54:02.087Z,95952.00
2024-01-25T05:55:04.341Z,95949.00
2024-01-25T05:56:02.109Z,95954.00
2024-01-25T05:57:02.086Z,95957.00
2024-01-25T05:58:02.134Z,95960.00
2024-01-25T05:59:02.095Z,95959.00
2024-01-25T06:00:02.072Z,95966.00
2024-01-25T06:01:02.185Z,95966.00
2024-01-25T06:02:02.389Z,95967.00
2024-01-25T06:03:02.093Z,95966.00
2024-01-25T06:04:02.175Z,95960.00
2024-01-25T06:05:02.241Z,95962.00
2024-01-25T06:06:02.189Z,95961.00
2024-01-25T06:07:02.297Z,95958.00
2024-01-25T06:08:02.260Z,95961.00
2024-01-25T06:09:11.257Z,95960.00
2024-01-25T06:10:03.220Z,95963.00
2024-01-25T06:11:02.183Z,95960.00
2024-01-25T06:12:02.146Z,95959.00
2024-01-25T06:13:02.167Z,95960.00
2024-01-25T06:14:02.220Z,95960.00
2024-01-25T06:15:02.104Z,95962.00
2024-01-25T06:16:02.167Z,95961.00
2024-01-25T06:17:02.099Z,95960.00
2024-01-25T06:18:02.097Z,95964.00
2024-01-25T06:19:02.167Z,95970.00
2024-01-25T06:20:02.499Z,95977.00
2024-01-25T06:21:02.109Z,95981.00
2024-01-25T06:22:02.162Z,95982.00
2024-01-25T06:23:02.125Z,95987.00
2024-01-25T06:24:02.134Z,95984.00
2024-01-25T06:25:02.242Z,95985.00
2024-01-25T06:26:02.496Z,95986.00
2024-01-25T06:27:02.094Z,95984.00
2024-01-25T06:28:02.126Z,95985.00
2024-01-25T06:29:02.110Z,95991.00
2024-01-25T06:30:02.110Z,95986.00
2024-01-25T06:31:02.168Z,95985.00
2024-01-25T06:32:07.652Z,95983.00
2024-01-25T06:33:03.296Z,95981.00
2024-01-25T06:34:02.308Z,95987.00
2024-01-25T06:35:02.290Z,95989.00
2024-01-25T06:36:02.141Z,95990.00
2024-01-25T06:37:02.151Z,95991.00
2024-01-25T06:38:02.146Z,95992.00
2024-01-25T06:39:02.112Z,95992.00
2024-01-25T06:40:02.724Z,95991.00
2024-01-25T06:41:02.157Z,95993.00
2024-01-25T06:42:02.156Z,95994.00
2024-01-25T06:43:02.256Z,95996.00
2024-01-25T06:44:03.101Z,95998.00
2024-01-25T06:45:02.152Z,95999.00
2024-01-25T06:46:02.176Z,96000.00
2024-01-25T06:47:02.194Z,96005.00
2024-01-25T06:48:02.319Z,96006.00
2024-01-25T06:49:02.346Z,96005.00
2024-01-25T06:50:02.516Z,96004.00
2024-01-25T06:51:02.695Z,96005.00
2024-01-25T06:52:02.452Z,96006.00
2024-01-25T06:53:02.474Z,96007.00
2024-01-25T06:54:02.551Z,96006.00
2024-01-25T06:55:02.649Z,96009.00
2024-01-25T06:56:02.667Z,96010.00
2024-01-25T06:57:02.623Z,96013.00
2024-01-25T06:58:02.769Z,96017.00
2024-01-25T06:59:02.713Z,96013.00
2024-01-25T07:00:02.807Z,96014.00
2024-01-25T07:01:03.292Z,96013.00
2024-01-25T07:02:03.345Z,96022.00
2024-01-25T07:03:02.802Z,96023.00
2024-01-25T07:04:02.911Z,96027.00
2024-01-25T07:05:03.183Z,96029.00
2024-01-25T07:06:03.356Z,96035.00
2024-01-25T07:07:03.060Z,96034.00
2024-01-25T07:08:03.072Z,96035.00
2024-01-25T07:09:03.103Z,96031.00
2024-01-25T07:10:03.729Z,96031.00
2024-01-25T07:11:03.326Z,96031.00
2024-01-25T07:12:03.171Z,96033.00
2024-01-25T07:13:03.360Z,96035.00
2024-01-25T07:14:03.343Z,96034.00
2024-01-25T07:15:03.402Z,96034.00
2024-01-25T07:16:03.524Z,96037.00
2024-01-25T07:17:03.442Z,96037.00
2024-01-25T07:18:03.718Z,96030.00
2024-01-25T07:19:04.297Z,96029.00
2024-01-25T07:20:03.730Z,96028.00
2024-01-25T07:21:03.775Z,96029.00
2024-01-25T07:22:03.750Z,96026.00
2024-01-25T07:23:03.693Z,96023.00
2024-01-25T07:24:03.691Z,96028.00
2024-01-25T07:25:03.744Z,96029.00
2024-01-25T07:26:03.787Z,96028.00
2024-01-25T07:27:03.691Z,96027.00
2024-01-25T07:28:04.907Z,96031.00
2024-01-25T07:29:03.691Z,96034.00
2024-01-25T07:30:04.226Z,96034.00
2024-01-25T07:31:04.825Z,96030.00
2024-01-25T07:32:03.858Z,96032.00
2024-01-25T07:33:04.181Z,96034.00
2024-01-25T07:34:04.026Z,96033.00
2024-01-25T07:35:04.208Z,96036.00
2024-01-25T07:36:03.889Z,96036.00
2024-01-25T07:37:03.965Z,96043.00
2024-01-25T07:38:03.907Z,96052.00
2024-01-25T07:39:03.954Z,96053.00
2024-01-25T07:40:04.134Z,96050.00
2024-01-25T07:41:03.971Z,96053.00
2024-01-25T07:42:04.165Z,96058.00
2024-01-25T07:43:04.258Z,96061.00
2024-01-25T07:44:04.707Z,96058.00
2024-01-25T07:45:04.675Z,96051.00
2024-01-25T07:46:04.232Z,96054.00
2024-01-25T07:47:03.954Z,96054.00
2024-01-25T07:48:09.284Z,96060.00
2024-01-25T07:49:05.297Z,96058.00
2024-01-25T07:50:04.081Z,96057.00
2024-01-25T07:51:04.265Z,96059.00
2024-01-25T07:52:04.066Z,96055.00
2024-01-25T07:53:03.961Z,96057.00
2024-01-25T07:54:03.976Z,96061.00
2024-01-25T07:55:06.171Z,96072.00
2024-01-25T07:56:04.004Z,96061.00
2024-01-25T07:57:04.107Z,96060.00
2024-01-25T07:58:05.787Z,96062.00
2024-01-25T07:59:04.786Z,96067.00
2024-01-25T08:00:04.703Z,96066.00
2024-01-25T08:01:04.092Z,96067.00
2024-01-25T08:02:04.139Z,96066.00
2024-01-25T08:03:04.311Z,96071.00
2024-01-25T08:04:04.166Z,96069.00
2024-01-25T08:05:04.160Z,96069.00
2024-01-25T08:06:04.532Z,96068.00
2024-01-25T08:07:04.074Z,96076.00
2024-01-25T08:08:04.131Z,96085.00
2024-01-25T08:09:04.432Z,96092.00
2024-01-25T08:10:04.779Z,96096.00
2024-01-25T08:11:04.427Z,96090.00
2024-01-25T08:12:04.441Z,96088.00
2024-01-25T08:13:07.453Z,96088.00
2024-01-25T08:14:04.830Z,96094.00
2024-01-25T08:15:04.364Z,96094.00
2024-01-25T08:16:04.494Z,96095.00
2024-01-25T08:17:05.224Z,96099.00
2024-01-25T08:18:04.768Z,96103.00
2024-01-25T08:19:05.016Z,96101.00
2024-01-25T08:20:04.561Z,96098.00
2024-01-25T08:21:04.569Z,96100.00
2024-01-25T08:22:05.280Z,96101.00
2024-01-25T08:23:04.390Z,96103.00
2024-01-25T08:24:06.163Z,96098.00
2024-01-25T08:25:04.437Z,96098.00
2024-01-25T08:26:04.396Z,96096.00
2024-01-25T08:27:07.728Z,96096.00
2024-01-25T08:28:06.712Z,96102.00
2024-01-25T08:29:04.756Z,96105.00
2024-01-25T08:30:04.636Z,96104.00
2024-01-25T08:31:04.696Z,96109.00
2024-01-25T08:32:04.723Z,96111.00
2024-01-25T08:33:06.389Z,96115.00
2024-01-25T08:34:05.300Z,96115.00
2024-01-25T08:35:05.012Z,96112.00
2024-01-25T08:36:04.964Z,96114.00
2024-01-25T08:37:05.026Z,96112.00
2024-01-25T08:38:05.073Z,96117.00
2024-01-25T08:39:05.266Z,96121.00
2024-01-25T08:40:05.141Z,96127.00
2024-01-25T08:41:05.145Z,96127.00
2024-01-25T08:42:05.118Z,96138.00
2024-01-25T08:43:05.218Z,96127.00
2024-01-25T08:44:05.230Z,96118.00
2024-01-25T08:45:05.185Z,96117.00
2024-01-25T08:46:05.305Z,96118.00
2024-01-25T08:47:05.188Z,96115.00
2024-01-25T08:48:06.339Z,96115.00
2024-01-25T08:49:05.943Z,96115.00
2024-01-25T08:50:05.519Z,96116.00
2024-01-25T08:51:05.706Z,96122.00
2024-01-25T08:52:05.536Z,96124.00
2024-01-25T08:53:05.613Z,96126.00
2024-01-25T08:54:05.720Z,96127.00
2024-01-25T08:55:06.314Z,96132.00
2024-01-25T08:56:06.370Z,96132.00
2024-01-25T08:57:05.822Z,96127.00
2024-01-25T08:58:06.255Z,96124.00
2024-01-25T08:59:05.964Z,96124.00
2024-01-25T09:00:06.879Z,96128.00
2024-01-25T09:01:06.271Z,96135.00
2024-01-25T09:02:06.347Z,96138.00
2024-01-25T09:03:06.741Z,96145.00
2024-01-25T09:04:06.488Z,96143.00
2024-01-25T09:05:06.437Z,96141.00
2024-01-25T09:06:06.934Z,96137.00
2024-01-25T09:07:06.668Z,96139.00
2024-01-25T09:08:06.897Z,96144.00
2024-01-25T09:09:06.822Z,96148.00
2024-01-25T09:10:06.764Z,96153.00
2024-01-25T09:11:06.774Z,96155.00
2024-01-25T09:12:06.880Z,96154.00
2024-01-25T09:13:07.850Z,96157.00
2024-01-25T09:14:06.976Z,96157.00
2024-01-25T09:15:07.006Z,96153.00
2024-01-25T09:16:07.095Z,96152.00
2024-01-25T09:17:07.179Z,96148.00
2024-01-25T09:18:07.344Z,96149.00
2024-01-25T09:19:07.708Z,96146.00
2024-01-25T09:20:07.649Z,96148.00
2024-01-25T09:21:07.742Z,96154.00
2024-01-25T09:22:07.630Z,96161.00
2024-01-25T09:23:07.575Z,96166.00
2024-01-25T09:24:07.688Z,96170.00
2024-01-25T09:25:09.943Z,96169.00
2024-01-25T09:26:07.798Z,96172.00
2024-01-25T09:27:07.771Z,96171.00
2024-01-25T09:28:07.716Z,96173.00
2024-01-25T09:29:07.711Z,96174.00
2024-01-25T09:30:07.701Z,96174.00
2024-01-25T09:31:07.875Z,96171.00
2024-01-25T09:32:07.745Z,96165.00
2024-01-25T09:33:07.923Z,96167.00
2024-01-25T09:34:07.820Z,96170.00
2024-01-25T09:35:07.756Z,96174.00
2024-01-25T09:36:07.664Z,96178.00
2024-01-25T09:37:07.745Z,96185.00
2024-01-25T09:38:07.720Z,96185.00
2024-01-25T09:39:07.753Z,96191.00
2024-01-25T09:40:08.070Z,96194.00
2024-01-25T09:41:07.664Z,96200.00
2024-01-25T09:42:07.660Z,96197.00
2024-01-25T09:43:07.711Z,96200.00
2024-01-25T09:44:07.787Z,96197.00
2024-01-25T09:45:08.309Z,96199.00
2024-01-25T09:46:07.768Z,96200.00
2024-01-25T09:47:07.703Z,96206.00
2024-01-25T09:48:08.735Z,96205.00
2024-01-25T09:49:08.491Z,96206.00
2024-01-25T09:50:07.835Z,96202.00
2024-01-25T09:51:07.776Z,96197.00
2024-01-25T09:52:07.812Z,96201.00
2024-01-25T09:53:07.751Z,96204.00
2024-01-25T09:54:07.728Z,96205.00
2024-01-25T09:55:07.781Z,96200.00
2024-01-25T09:56:07.673Z,96201.00
2024-01-25T09:57:08.299Z,96203.00
2024-01-25T09:58:07.702Z,96207.00
2024-01-25T09:59:07.775Z,96234.00
2024-01-25T10:00:07.683Z,96214.00
2024-01-25T10:01:07.760Z,96218.00
2024-01-25T10:02:07.800Z,96223.00
2024-01-25T10:03:07.695Z,96224.00
2024-01-25T10:04:07.938Z,96224.00
2024-01-25T10:05:09.009Z,96222.00
2024-01-25T10:06:08.958Z,96223.00
2024-01-25T10:07:08.369Z,96217.00
2024-01-25T10:08:08.004Z,96217.00
2024-01-25T10:09:07.927Z,96209.00
2024-01-25T10:10:08.052Z,96210.00
2024-01-25T10:11:08.269Z,96207.00
2024-01-25T10:12:17.556Z,96207.00
2024-01-25T10:13:09.149Z,96205.00
2024-01-25T10:14:08.262Z,96203.00
2024-01-25T10:15:08.019Z,96199.00
2024-01-25T10:16:08.235Z,96199.00
2024-01-25T10:17:08.082Z,96197.00
2024-01-25T10:19:09.323Z,96189.00
2024-01-25T10:20:08.230Z,96183.00
2024-01-25T10:21:08.365Z,96179.00
2024-01-25T10:22:08.428Z,96179.00
2024-01-25T10:23:08.218Z,96181.00
2024-01-25T10:24:08.472Z,96181.00
2024-01-25T10:25:10.838Z,96182.00
2024-01-25T10:26:08.164Z,96180.00
2024-01-25T10:27:08.795Z,96179.00
2024-01-25T10:28:10.890Z,96177.00
2024-01-25T10:29:08.408Z,96180.00
2024-01-25T10:30:08.019Z,96177.00
2024-01-25T10:31:08.092Z,96183.00
2024-01-25T10:32:08.122Z,96182.00
2024-01-25T10:33:08.141Z,96184.00
2024-01-25T10:34:08.205Z,96186.00
2024-01-25T10:35:08.392Z,96184.00
2024-01-25T10:36:08.066Z,96184.00
2024-01-25T10:37:08.122Z,96187.00
2024-01-25T10:38:08.048Z,96188.00
2024-01-25T10:39:08.260Z,96184.00
2024-01-25T10:40:08.219Z,96185.00
2024-01-25T10:41:08.085Z,96184.00
2024-01-25T10:42:08.060Z,96187.00
2024-01-25T10:43:08.099Z,96186.00
2024-01-25T10:44:08.292Z,96185.00
2024-01-25T10:45:08.750Z,96186.00
2024-01-25T10:46:08.151Z,96188.00
2024-01-25T10:47:08.065Z,96190.00
2024-01-25T10:48:08.134Z,96193.00
2024-01-25T10:49:08.401Z,96198.00
2024-01-25T10:50:08.286Z,96201.00
2024-01-25T10:51:08.239Z,96198.00
2024-01-25T10:52:08.136Z,96195.00
2024-01-25T10:53:08.091Z,96190.00
2024-01-25T10:54:08.145Z,96185.00
2024-01-25T10:55:08.111Z,96186.00
2024-01-25T10:56:08.348Z,96184.00
2024-01-25T10:57:08.076Z,96184.00
2024-01-25T10:58:08.115Z,96181.00
2024-01-25T10:59:08.025Z,96179.00
2024-01-25T11:00:08.040Z,96176.00
2024-01-25T11:01:09.494Z,96172.00
2024-01-25T11:02:08.849Z,96174.00
2024-01-25T11:03:08.102Z,96175.00
2024-01-25T11:04:08.191Z,96178.00
2024-01-25T11:05:08.461Z,96177.00
2024-01-25T11:06:08.043Z,96181.00
2024-01-25T11:07:08.373Z,96179.00
2024-01-25T11:08:08.064Z,96179.00
2024-01-25T11:09:08.179Z,96171.00
2024-01-25T11:10:08.377Z,96165.00
2024-01-25T11:11:08.288Z,96166.00
2024-01-25T11:12:08.370Z,96160.00
2024-01-25T11:13:08.519Z,96161.00
2024-01-25T11:14:08.506Z,96162.00
2024-01-25T11:15:09.327Z,96159.00
2024-01-25T11:16:08.665Z,96159.00
2024-01-25T11:17:08.645Z,96154.00
2024-01-25T11:18:08.769Z,96152.00
2024-01-25T11:19:09.192Z,96152.00
2024-01-25T11:20:08.898Z,96152.00
2024-01-25T11:21:09.350Z,96151.00
2024-01-25T11:22:08.943Z,96153.00
2024-01-25T11:23:08.918Z,96158.00
2024-01-25T11:24:09.081Z,96157.00
2024-01-25T11:25:09.125Z,96155.00
2024-01-25T11:26:09.929Z,96158.00
2024-01-25T11:27:09.142Z,96154.00
2024-01-25T11:28:09.315Z,96149.00
2024-01-25T11:29:09.211Z,96149.00
2024-01-25T11:30:09.255Z,96151.00
2024-01-25T11:31:09.279Z,96149.00
2024-01-25T11:32:09.335Z,96143.00
2024-01-25T11:33:09.489Z,96145.00
2024-01-25T11:34:09.438Z,96146.00
2024-01-25T11:35:09.624Z,96142.00
2024-01-25T11:36:09.842Z,96141.00
2024-01-25T11:37:09.633Z,96137.00
2024-01-25T11:38:09.540Z,96134.00
2024-01-25T11:39:09.593Z,96133.00
2024-01-25T11:40:09.718Z,96136.00
2024-01-25T11:41:09.656Z,96134.00
2024-01-25T11:42:10.313Z,96134.00
2024-01-25T11:43:09.815Z,96139.00
2024-01-25T11:44:09.851Z,96138.00
2024-01-25T11:45:09.780Z,96141.00
2024-01-25T11:46:09.934Z,96149.00